sensor_id;sensor_type;location;lat;lon;timestamp;pressure;altitude;pressure_sealevel;temperature;humidity
4570;BME280;2297;51.442;6.996;2023-08-07T00:01:34;99800.84;;;12.86;77.18
4570;BME280;2297;51.442;6.996;2023-08-07T00:04:01;99812.47;;;12.58;78.30
4570;BME280;2297;51.442;6.996;2023-08-07T00:06:29;99822.22;;;12.57;78.30
4570;BME280;2297;51.442;6.996;2023-08-07T00:08:56;99817.16;;;12.26;79.71
4570;BME280;2297;51.442;6.996;2023-08-07T00:11:22;99816.50;;;12.44;78.79
4570;BME280;2297;51.442;6.996;2023-08-07T00:13:51;99817.78;;;12.58;78.75
4570;BME280;2297;51.442;6.996;2023-08-07T00:16:17;99812.88;;;12.71;78.30
4570;BME280;2297;51.442;6.996;2023-08-07T00:18:44;99814.56;;;12.73;78.20
4570;BME280;2297;51.442;6.996;2023-08-07T00:21:11;99819.28;;;12.89;77.17
4570;BME280;2297;51.442;6.996;2023-08-07T00:23:39;99822.94;;;12.37;79.17
4570;BME280;2297;51.442;6.996;2023-08-07T00:26:06;99816.66;;;12.65;77.50
4570;BME280;2297;51.442;6.996;2023-08-07T00:28:32;99829.28;;;12.33;79.56
4570;BME280;2297;51.442;6.996;2023-08-07T00:31:00;99826.16;;;13.17;75.79
4570;BME280;2297;51.442;6.996;2023-08-07T00:33:27;99823.13;;;13.04;76.29
4570;BME280;2297;51.442;6.996;2023-08-07T00:35:54;99830.69;;;12.91;75.48
4570;BME280;2297;51.442;6.996;2023-08-07T00:38:20;99829.91;;;12.87;75.98
4570;BME280;2297;51.442;6.996;2023-08-07T00:40:48;99833.25;;;12.69;76.90
4570;BME280;2297;51.442;6.996;2023-08-07T00:43:15;99828.84;;;12.93;75.01
4570;BME280;2297;51.442;6.996;2023-08-07T00:45:43;99838.59;;;13.38;74.29
4570;BME280;2297;51.442;6.996;2023-08-07T00:48:10;99841.56;;;13.07;74.98
4570;BME280;2297;51.442;6.996;2023-08-07T00:50:38;99846.91;;;13.29;74.42
4570;BME280;2297;51.442;6.996;2023-08-07T00:53:06;99840.50;;;13.57;73.19
4570;BME280;2297;51.442;6.996;2023-08-07T00:55:33;99850.50;;;13.50;73.76
4570;BME280;2297;51.442;6.996;2023-08-07T00:58:01;99841.13;;;13.18;74.56
4570;BME280;2297;51.442;6.996;2023-08-07T01:00:28;99847.25;;;13.20;74.31
4570;BME280;2297;51.442;6.996;2023-08-07T01:02:56;99847.22;;;12.97;75.70
4570;BME280;2297;51.442;6.996;2023-08-07T01:05:23;99844.63;;;12.96;75.66
4570;BME280;2297;51.442;6.996;2023-08-07T01:07:50;99851.84;;;13.38;73.95
4570;BME280;2297;51.442;6.996;2023-08-07T01:10:22;99850.13;;;13.13;74.39
4570;BME280;2297;51.442;6.996;2023-08-07T01:12:54;99856.41;;;12.87;75.87
4570;BME280;2297;51.442;6.996;2023-08-07T01:15:53;99853.13;;;13.04;74.92
4570;BME280;2297;51.442;6.996;2023-08-07T01:18:22;99852.16;;;13.07;74.62
4570;BME280;2297;51.442;6.996;2023-08-07T01:20:48;99866.91;;;13.38;73.74
4570;BME280;2297;51.442;6.996;2023-08-07T01:23:16;99852.69;;;12.69;76.30
4570;BME280;2297;51.442;6.996;2023-08-07T01:26:14;99848.31;;;12.92;74.96
4570;BME280;2297;51.442;6.996;2023-08-07T01:28:46;99847.59;;;13.10;75.07
4570;BME280;2297;51.442;6.996;2023-08-07T01:31:16;99849.75;;;13.24;73.62
4570;BME280;2297;51.442;6.996;2023-08-07T01:33:51;99844.59;;;13.43;73.50
4570;BME280;2297;51.442;6.996;2023-08-07T01:36:21;99851.69;;;13.19;74.52
4570;BME280;2297;51.442;6.996;2023-08-07T01:38:52;99866.91;;;13.14;74.21
4570;BME280;2297;51.442;6.996;2023-08-07T01:41:21;99855.00;;;13.02;74.74
4570;BME280;2297;51.442;6.996;2023-08-07T01:43:47;99861.41;;;13.42;73.33
4570;BME280;2297;51.442;6.996;2023-08-07T01:46:42;99863.22;;;13.42;73.28
4570;BME280;2297;51.442;6.996;2023-08-07T01:49:11;99858.91;;;13.39;73.34
4570;BME280;2297;51.442;6.996;2023-08-07T01:51:37;99855.38;;;13.15;74.49
4570;BME280;2297;51.442;6.996;2023-08-07T01:54:33;99861.56;;;13.16;73.79
4570;BME280;2297;51.442;6.996;2023-08-07T01:57:19;99859.00;;;13.36;72.97
4570;BME280;2297;51.442;6.996;2023-08-07T01:59:46;99865.13;;;13.14;73.49
4570;BME280;2297;51.442;6.996;2023-08-07T02:02:31;99860.94;;;13.33;73.20
4570;BME280;2297;51.442;6.996;2023-08-07T02:04:57;99867.88;;;13.57;72.62
4570;BME280;2297;51.442;6.996;2023-08-07T02:07:24;99862.22;;;13.22;74.14
4570;BME280;2297;51.442;6.996;2023-08-07T02:09:52;99857.75;;;13.23;74.23
4570;BME280;2297;51.442;6.996;2023-08-07T02:12:18;99871.69;;;13.04;74.79
4570;BME280;2297;51.442;6.996;2023-08-07T02:14:45;99864.28;;;12.90;75.03
4570;BME280;2297;51.442;6.996;2023-08-07T02:17:27;99870.84;;;12.80;75.87
4570;BME280;2297;51.442;6.996;2023-08-07T02:20:05;99863.50;;;13.10;74.80
4570;BME280;2297;51.442;6.996;2023-08-07T02:22:32;99867.44;;;13.00;74.95
4570;BME280;2297;51.442;6.996;2023-08-07T02:25:00;99872.03;;;13.19;74.11
4570;BME280;2297;51.442;6.996;2023-08-07T02:27:26;99875.84;;;12.88;75.33
4570;BME280;2297;51.442;6.996;2023-08-07T02:29:53;99877.63;;;12.87;75.50
4570;BME280;2297;51.442;6.996;2023-08-07T02:32:20;99877.03;;;13.50;73.17
4570;BME280;2297;51.442;6.996;2023-08-07T02:34:47;99866.59;;;13.23;73.63
4570;BME280;2297;51.442;6.996;2023-08-07T02:37:13;99870.84;;;13.27;73.49
4570;BME280;2297;51.442;6.996;2023-08-07T02:39:41;99884.94;;;13.04;73.76
4570;BME280;2297;51.442;6.996;2023-08-07T02:42:09;99889.56;;;13.23;73.60
4570;BME280;2297;51.442;6.996;2023-08-07T02:44:36;99868.59;;;13.17;73.84
4570;BME280;2297;51.442;6.996;2023-08-07T02:47:03;99882.75;;;13.16;73.80
4570;BME280;2297;51.442;6.996;2023-08-07T02:49:30;99888.75;;;13.44;73.00
4570;BME280;2297;51.442;6.996;2023-08-07T02:51:56;99899.03;;;13.06;74.23
4570;BME280;2297;51.442;6.996;2023-08-07T02:54:23;99887.63;;;13.28;73.05
4570;BME280;2297;51.442;6.996;2023-08-07T02:56:50;99892.06;;;13.27;73.12
4570;BME280;2297;51.442;6.996;2023-08-07T02:59:18;99881.94;;;12.90;74.23
4570;BME280;2297;51.442;6.996;2023-08-07T03:01:45;99888.75;;;13.21;73.54
4570;BME280;2297;51.442;6.996;2023-08-07T03:04:12;99887.03;;;12.96;73.88
4570;BME280;2297;51.442;6.996;2023-08-07T03:06:38;99882.09;;;13.34;73.41
4570;BME280;2297;51.442;6.996;2023-08-07T03:09:05;99895.28;;;13.36;73.09
4570;BME280;2297;51.442;6.996;2023-08-07T03:11:31;99893.03;;;13.25;73.84
4570;BME280;2297;51.442;6.996;2023-08-07T03:13:58;99891.88;;;13.32;73.59
4570;BME280;2297;51.442;6.996;2023-08-07T03:16:26;99884.84;;;13.07;74.03
4570;BME280;2297;51.442;6.996;2023-08-07T03:18:53;99897.06;;;12.88;74.52
4570;BME280;2297;51.442;6.996;2023-08-07T03:21:19;99898.53;;;12.95;74.38
4570;BME280;2297;51.442;6.996;2023-08-07T03:23:46;99901.19;;;13.19;74.01
4570;BME280;2297;51.442;6.996;2023-08-07T03:26:13;99899.88;;;13.07;74.61
4570;BME280;2297;51.442;6.996;2023-08-07T03:28:40;99891.84;;;12.61;76.14
4570;BME280;2297;51.442;6.996;2023-08-07T03:31:07;99884.09;;;13.04;74.87
4570;BME280;2297;51.442;6.996;2023-08-07T03:33:34;99895.94;;;12.70;75.77
4570;BME280;2297;51.442;6.996;2023-08-07T03:36:01;99893.66;;;12.84;75.70
4570;BME280;2297;51.442;6.996;2023-08-07T03:38:28;99894.41;;;13.11;74.34
4570;BME280;2297;51.442;6.996;2023-08-07T03:41:13;99906.50;;;12.95;73.96
4570;BME280;2297;51.442;6.996;2023-08-07T03:43:39;99900.50;;;12.90;75.34
4570;BME280;2297;51.442;6.996;2023-08-07T03:46:06;99905.47;;;12.75;75.35
4570;BME280;2297;51.442;6.996;2023-08-07T03:48:34;99899.31;;;12.98;74.29
4570;BME280;2297;51.442;6.996;2023-08-07T03:51:04;99914.72;;;12.87;73.91
4570;BME280;2297;51.442;6.996;2023-08-07T03:53:33;99904.50;;;13.25;73.37
4570;BME280;2297;51.442;6.996;2023-08-07T03:56:00;99913.78;;;13.37;72.33
4570;BME280;2297;51.442;6.996;2023-08-07T03:58:26;99905.03;;;13.35;72.09
4570;BME280;2297;51.442;6.996;2023-08-07T04:01:30;99902.94;;;13.43;72.02
4570;BME280;2297;51.442;6.996;2023-08-07T04:03:58;99894.63;;;13.05;72.41
4570;BME280;2297;51.442;6.996;2023-08-07T04:06:24;99902.47;;;13.08;72.62
4570;BME280;2297;51.442;6.996;2023-08-07T04:08:52;99892.53;;;13.13;72.31
4570;BME280;2297;51.442;6.996;2023-08-07T04:11:19;99897.63;;;13.20;72.20
4570;BME280;2297;51.442;6.996;2023-08-07T04:13:45;99903.06;;;13.17;72.38
4570;BME280;2297;51.442;6.996;2023-08-07T04:16:24;99899.81;;;13.32;72.04
4570;BME280;2297;51.442;6.996;2023-08-07T04:18:51;99905.16;;;13.07;72.59
4570;BME280;2297;51.442;6.996;2023-08-07T04:21:20;99902.47;;;13.08;73.16
4570;BME280;2297;51.442;6.996;2023-08-07T04:23:49;99921.25;;;12.78;74.06
4570;BME280;2297;51.442;6.996;2023-08-07T04:26:16;99911.50;;;12.54;74.98
4570;BME280;2297;51.442;6.996;2023-08-07T04:28:43;99916.47;;;12.63;74.35
4570;BME280;2297;51.442;6.996;2023-08-07T04:31:09;99913.78;;;12.64;75.45
4570;BME280;2297;51.442;6.996;2023-08-07T04:33:36;99912.16;;;13.09;73.03
4570;BME280;2297;51.442;6.996;2023-08-07T04:36:03;99912.75;;;12.94;73.45
4570;BME280;2297;51.442;6.996;2023-08-07T04:38:31;99913.03;;;12.36;75.30
4570;BME280;2297;51.442;6.996;2023-08-07T04:41:35;99904.28;;;13.32;72.17
4570;BME280;2297;51.442;6.996;2023-08-07T04:44:01;99906.06;;;13.07;72.65
4570;BME280;2297;51.442;6.996;2023-08-07T04:46:28;99905.38;;;13.26;71.85
4570;BME280;2297;51.442;6.996;2023-08-07T04:48:55;99919.66;;;13.22;71.84
4570;BME280;2297;51.442;6.996;2023-08-07T04:51:22;99913.56;;;12.71;72.99
4570;BME280;2297;51.442;6.996;2023-08-07T04:53:50;99915.06;;;12.78;73.24
4570;BME280;2297;51.442;6.996;2023-08-07T04:56:53;99916.41;;;13.13;72.25
4570;BME280;2297;51.442;6.996;2023-08-07T04:59:20;99915.03;;;13.27;71.24
4570;BME280;2297;51.442;6.996;2023-08-07T05:01:46;99925.16;;;12.92;72.65
4570;BME280;2297;51.442;6.996;2023-08-07T05:04:13;99914.94;;;13.06;71.77
4570;BME280;2297;51.442;6.996;2023-08-07T05:06:40;99909.28;;;13.16;71.50
4570;BME280;2297;51.442;6.996;2023-08-07T05:09:08;99913.78;;;13.37;70.83
4570;BME280;2297;51.442;6.996;2023-08-07T05:11:34;99906.41;;;13.22;71.57
4570;BME280;2297;51.442;6.996;2023-08-07T05:14:01;99917.91;;;13.21;71.70
4570;BME280;2297;51.442;6.996;2023-08-07T05:23:20;99911.31;;;12.60;74.06
4570;BME280;2297;51.442;6.996;2023-08-07T05:25:47;99919.47;;;13.03;72.67
4570;BME280;2297;51.442;6.996;2023-08-07T05:28:14;99914.34;;;12.49;74.88
4570;BME280;2297;51.442;6.996;2023-08-07T05:30:59;99913.66;;;12.93;72.82
4570;BME280;2297;51.442;6.996;2023-08-07T05:33:26;99926.41;;;12.81;73.01
4570;BME280;2297;51.442;6.996;2023-08-07T05:35:52;99924.22;;;12.69;74.29
4570;BME280;2297;51.442;6.996;2023-08-07T05:38:20;99921.88;;;12.85;73.43
4570;BME280;2297;51.442;6.996;2023-08-07T05:40:48;99924.00;;;12.75;73.49
4570;BME280;2297;51.442;6.996;2023-08-07T05:43:16;99922.53;;;12.92;73.39
4570;BME280;2297;51.442;6.996;2023-08-07T05:45:43;99924.03;;;12.74;73.80
4570;BME280;2297;51.442;6.996;2023-08-07T05:48:11;99930.81;;;12.83;73.58
4570;BME280;2297;51.442;6.996;2023-08-07T05:50:38;99937.75;;;13.10;72.98
4570;BME280;2297;51.442;6.996;2023-08-07T05:53:04;99951.56;;;12.95;73.10
4570;BME280;2297;51.442;6.996;2023-08-07T05:55:31;99947.63;;;12.81;74.11
4570;BME280;2297;51.442;6.996;2023-08-07T05:57:59;99937.69;;;12.63;74.77
4570;BME280;2297;51.442;6.996;2023-08-07T06:00:26;99942.72;;;12.45;75.31
4570;BME280;2297;51.442;6.996;2023-08-07T06:02:53;99953.50;;;12.66;74.36
4570;BME280;2297;51.442;6.996;2023-08-07T06:05:20;99952.47;;;12.43;75.16
4570;BME280;2297;51.442;6.996;2023-08-07T06:08:05;99955.06;;;11.63;78.50
4570;BME280;2297;51.442;6.996;2023-08-07T06:10:32;99951.31;;;12.52;76.12
4570;BME280;2297;51.442;6.996;2023-08-07T06:13:00;99952.78;;;12.34;76.05
4570;BME280;2297;51.442;6.996;2023-08-07T06:15:26;99960.03;;;12.56;75.98
4570;BME280;2297;51.442;6.996;2023-08-07T06:17:54;99962.72;;;12.79;74.63
4570;BME280;2297;51.442;6.996;2023-08-07T06:20:20;99960.28;;;12.73;75.00
4570;BME280;2297;51.442;6.996;2023-08-07T06:22:47;99963.13;;;12.67;75.59
4570;BME280;2297;51.442;6.996;2023-08-07T06:25:15;99967.19;;;13.03;74.62
4570;BME280;2297;51.442;6.996;2023-08-07T06:27:42;99959.63;;;12.92;74.54
4570;BME280;2297;51.442;6.996;2023-08-07T06:30:11;99972.69;;;13.22;74.09
4570;BME280;2297;51.442;6.996;2023-08-07T06:32:39;99979.53;;;13.04;74.27
4570;BME280;2297;51.442;6.996;2023-08-07T06:35:06;99975.53;;;12.92;74.73
4570;BME280;2297;51.442;6.996;2023-08-07T06:37:33;99984.06;;;13.25;74.06
4570;BME280;2297;51.442;6.996;2023-08-07T06:39:59;99976.28;;;13.44;73.21
4570;BME280;2297;51.442;6.996;2023-08-07T06:42:26;99988.94;;;13.12;74.63
4570;BME280;2297;51.442;6.996;2023-08-07T06:44:53;99994.16;;;13.39;73.47
4570;BME280;2297;51.442;6.996;2023-08-07T06:47:21;99999.19;;;12.71;75.92
4570;BME280;2297;51.442;6.996;2023-08-07T06:49:48;99993.75;;;13.01;75.47
4570;BME280;2297;51.442;6.996;2023-08-07T06:52:14;99985.78;;;13.26;74.80
4570;BME280;2297;51.442;6.996;2023-08-07T06:54:41;99992.25;;;13.18;74.62
4570;BME280;2297;51.442;6.996;2023-08-07T06:57:08;99996.59;;;13.20;74.72
4570;BME280;2297;51.442;6.996;2023-08-07T06:59:34;99993.91;;;13.45;73.34
4570;BME280;2297;51.442;6.996;2023-08-07T07:02:01;100004.78;;;13.14;74.03
4570;BME280;2297;51.442;6.996;2023-08-07T07:04:29;100009.25;;;13.37;73.62
4570;BME280;2297;51.442;6.996;2023-08-07T07:06:55;100016.63;;;13.29;74.03
4570;BME280;2297;51.442;6.996;2023-08-07T07:09:22;100012.56;;;13.19;75.03
4570;BME280;2297;51.442;6.996;2023-08-07T07:11:49;100013.75;;;13.35;74.37
4570;BME280;2297;51.442;6.996;2023-08-07T07:14:15;100014.63;;;13.36;73.62
4570;BME280;2297;51.442;6.996;2023-08-07T07:16:42;100014.97;;;13.50;73.86
4570;BME280;2297;51.442;6.996;2023-08-07T07:19:09;100023.84;;;13.49;73.86
4570;BME280;2297;51.442;6.996;2023-08-07T07:21:36;100022.53;;;13.61;73.25
4570;BME280;2297;51.442;6.996;2023-08-07T07:24:04;100022.94;;;13.50;74.15
4570;BME280;2297;51.442;6.996;2023-08-07T07:26:31;100025.56;;;13.74;73.19
4570;BME280;2297;51.442;6.996;2023-08-07T07:28:58;100028.84;;;13.33;74.25
4570;BME280;2297;51.442;6.996;2023-08-07T07:31:24;100032.66;;;13.26;74.99
4570;BME280;2297;51.442;6.996;2023-08-07T07:33:51;100037.25;;;13.21;75.73
4570;BME280;2297;51.442;6.996;2023-08-07T07:36:18;100028.03;;;13.55;74.35
4570;BME280;2297;51.442;6.996;2023-08-07T07:38:47;100038.78;;;13.52;74.31
4570;BME280;2297;51.442;6.996;2023-08-07T07:41:14;100040.16;;;13.38;74.73
4570;BME280;2297;51.442;6.996;2023-08-07T07:43:41;100055.56;;;12.76;77.57
4570;BME280;2297;51.442;6.996;2023-08-07T07:46:07;100052.09;;;13.26;75.65
4570;BME280;2297;51.442;6.996;2023-08-07T07:48:34;100056.22;;;13.08;75.85
4570;BME280;2297;51.442;6.996;2023-08-07T07:51:16;100057.00;;;13.37;75.42
4570;BME280;2297;51.442;6.996;2023-08-07T07:53:43;100062.44;;;13.82;73.67
4570;BME280;2297;51.442;6.996;2023-08-07T07:56:11;100060.84;;;13.54;74.69
4570;BME280;2297;51.442;6.996;2023-08-07T07:58:38;100072.19;;;13.32;75.71
4570;BME280;2297;51.442;6.996;2023-08-07T08:01:21;100074.53;;;13.41;75.52
4570;BME280;2297;51.442;6.996;2023-08-07T08:03:48;100065.88;;;13.36;75.79
4570;BME280;2297;51.442;6.996;2023-08-07T08:06:15;100088.06;;;13.59;75.02
4570;BME280;2297;51.442;6.996;2023-08-07T08:08:42;100083.03;;;13.51;74.76
4570;BME280;2297;51.442;6.996;2023-08-07T08:11:08;100087.72;;;13.68;74.77
4570;BME280;2297;51.442;6.996;2023-08-07T08:13:36;100096.16;;;13.54;74.58
4570;BME280;2297;51.442;6.996;2023-08-07T08:16:04;100108.41;;;13.58;74.19
4570;BME280;2297;51.442;6.996;2023-08-07T08:18:31;100106.25;;;13.44;74.26
4570;BME280;2297;51.442;6.996;2023-08-07T08:20:58;100100.38;;;13.60;74.51
4570;BME280;2297;51.442;6.996;2023-08-07T08:23:24;100107.25;;;13.66;74.44
4570;BME280;2297;51.442;6.996;2023-08-07T08:25:51;100123.69;;;13.52;74.32
4570;BME280;2297;51.442;6.996;2023-08-07T08:28:18;100111.91;;;13.83;73.67
4570;BME280;2297;51.442;6.996;2023-08-07T08:30:46;100127.84;;;13.59;74.78
4570;BME280;2297;51.442;6.996;2023-08-07T08:33:12;100123.22;;;14.11;73.09
4570;BME280;2297;51.442;6.996;2023-08-07T08:35:40;100130.06;;;13.71;74.50
4570;BME280;2297;51.442;6.996;2023-08-07T08:38:06;100127.72;;;13.62;75.43
4570;BME280;2297;51.442;6.996;2023-08-07T08:40:33;100135.13;;;14.25;72.62
4570;BME280;2297;51.442;6.996;2023-08-07T08:43:01;100140.31;;;13.80;74.63
4570;BME280;2297;51.442;6.996;2023-08-07T08:45:45;100140.53;;;14.45;72.24
4570;BME280;2297;51.442;6.996;2023-08-07T08:48:18;100144.41;;;14.37;72.03
4570;BME280;2297;51.442;6.996;2023-08-07T08:50:48;100144.94;;;14.46;71.85
4570;BME280;2297;51.442;6.996;2023-08-07T08:53:15;100152.69;;;14.29;72.16
4570;BME280;2297;51.442;6.996;2023-08-07T08:55:43;100144.84;;;14.92;70.95
4570;BME280;2297;51.442;6.996;2023-08-07T08:58:13;100149.97;;;14.97;69.92
4570;BME280;2297;51.442;6.996;2023-08-07T09:00:41;100156.28;;;14.72;70.60
4570;BME280;2297;51.442;6.996;2023-08-07T09:03:10;100151.50;;;15.25;70.08
4570;BME280;2297;51.442;6.996;2023-08-07T09:05:37;100162.34;;;14.76;70.44
4570;BME280;2297;51.442;6.996;2023-08-07T09:08:04;100157.59;;;15.27;69.32
4570;BME280;2297;51.442;6.996;2023-08-07T09:10:32;100166.31;;;15.30;69.56
4570;BME280;2297;51.442;6.996;2023-08-07T09:13:01;100180.13;;;14.96;69.85
4570;BME280;2297;51.442;6.996;2023-08-07T09:15:29;100167.38;;;15.04;69.73
4570;BME280;2297;51.442;6.996;2023-08-07T09:17:57;100168.97;;;15.08;68.81
4570;BME280;2297;51.442;6.996;2023-08-07T09:20:26;100159.88;;;15.16;69.29
4570;BME280;2297;51.442;6.996;2023-08-07T09:22:53;100175.88;;;15.14;68.63
4570;BME280;2297;51.442;6.996;2023-08-07T09:25:27;100189.84;;;14.97;67.60
4570;BME280;2297;51.442;6.996;2023-08-07T09:27:55;100179.53;;;15.32;66.78
4570;BME280;2297;51.442;6.996;2023-08-07T09:30:26;100190.47;;;15.67;66.18
4570;BME280;2297;51.442;6.996;2023-08-07T09:32:53;100181.94;;;15.59;66.22
4570;BME280;2297;51.442;6.996;2023-08-07T09:35:21;100188.28;;;15.36;66.65
4570;BME280;2297;51.442;6.996;2023-08-07T09:37:49;100173.59;;;14.83;68.02
4570;BME280;2297;51.442;6.996;2023-08-07T09:40:17;100186.56;;;15.12;67.10
4570;BME280;2297;51.442;6.996;2023-08-07T09:42:44;100195.97;;;15.42;66.60
4570;BME280;2297;51.442;6.996;2023-08-07T09:45:21;100196.81;;;15.22;67.44
4570;BME280;2297;51.442;6.996;2023-08-07T09:47:57;100187.78;;;15.26;68.27
4570;BME280;2297;51.442;6.996;2023-08-07T09:50:24;100203.38;;;15.76;67.13
4570;BME280;2297;51.442;6.996;2023-08-07T09:52:53;100206.38;;;15.69;66.63
4570;BME280;2297;51.442;6.996;2023-08-07T09:55:21;100198.53;;;15.45;67.19
4570;BME280;2297;51.442;6.996;2023-08-07T09:57:48;100207.44;;;15.44;65.88
4570;BME280;2297;51.442;6.996;2023-08-07T10:00:15;100218.53;;;15.54;66.08
4570;BME280;2297;51.442;6.996;2023-08-07T10:02:45;100213.22;;;15.74;65.76
4570;BME280;2297;51.442;6.996;2023-08-07T10:05:12;100215.72;;;15.36;66.70
4570;BME280;2297;51.442;6.996;2023-08-07T10:07:40;100220.56;;;15.49;66.78
4570;BME280;2297;51.442;6.996;2023-08-07T10:10:09;100217.47;;;15.78;65.69
4570;BME280;2297;51.442;6.996;2023-08-07T10:12:37;100222.66;;;15.40;66.22
4570;BME280;2297;51.442;6.996;2023-08-07T10:15:04;100220.25;;;15.96;64.65
4570;BME280;2297;51.442;6.996;2023-08-07T10:17:31;100214.72;;;15.80;65.23
4570;BME280;2297;51.442;6.996;2023-08-07T10:19:58;100220.16;;;15.99;64.38
4570;BME280;2297;51.442;6.996;2023-08-07T10:22:26;100216.25;;;16.06;64.89
4570;BME280;2297;51.442;6.996;2023-08-07T10:24:54;100224.53;;;16.00;64.72
4570;BME280;2297;51.442;6.996;2023-08-07T10:27:25;100220.75;;;16.25;64.40
4570;BME280;2297;51.442;6.996;2023-08-07T10:29:53;100212.91;;;15.41;65.12
4570;BME280;2297;51.442;6.996;2023-08-07T10:32:24;100219.44;;;16.15;63.67
4570;BME280;2297;51.442;6.996;2023-08-07T10:34:52;100217.28;;;15.62;63.93
4570;BME280;2297;51.442;6.996;2023-08-07T10:37:32;100215.69;;;16.19;62.56
4570;BME280;2297;51.442;6.996;2023-08-07T10:40:06;100226.94;;;15.86;63.44
4570;BME280;2297;51.442;6.996;2023-08-07T10:42:56;100232.84;;;15.92;63.87
4570;BME280;2297;51.442;6.996;2023-08-07T10:45:24;100238.16;;;15.72;64.92
4570;BME280;2297;51.442;6.996;2023-08-07T10:48:01;100254.47;;;15.64;65.87
4570;BME280;2297;51.442;6.996;2023-08-07T10:50:29;100248.53;;;15.57;66.40
4570;BME280;2297;51.442;6.996;2023-08-07T10:52:56;100262.09;;;15.51;67.33
4570;BME280;2297;51.442;6.996;2023-08-07T10:55:22;100258.47;;;15.74;65.85
4570;BME280;2297;51.442;6.996;2023-08-07T10:57:49;100254.47;;;15.43;66.46
4570;BME280;2297;51.442;6.996;2023-08-07T11:00:25;100259.34;;;15.11;66.85
4570;BME280;2297;51.442;6.996;2023-08-07T11:02:52;100267.25;;;14.89;67.50
4570;BME280;2297;51.442;6.996;2023-08-07T11:05:18;100262.44;;;14.99;68.56
4570;BME280;2297;51.442;6.996;2023-08-07T11:07:45;100259.69;;;15.24;66.99
4570;BME280;2297;51.442;6.996;2023-08-07T11:10:13;100258.56;;;15.30;66.87
4570;BME280;2297;51.442;6.996;2023-08-07T11:12:41;100258.66;;;15.49;65.80
4570;BME280;2297;51.442;6.996;2023-08-07T11:15:12;100258.41;;;15.76;65.19
4570;BME280;2297;51.442;6.996;2023-08-07T11:17:40;100252.59;;;15.87;66.26
4570;BME280;2297;51.442;6.996;2023-08-07T11:20:09;100257.66;;;15.72;65.76
4570;BME280;2297;51.442;6.996;2023-08-07T11:22:58;100265.34;;;16.01;65.03
4570;BME280;2297;51.442;6.996;2023-08-07T11:25:26;100262.63;;;16.02;65.30
4570;BME280;2297;51.442;6.996;2023-08-07T11:27:53;100264.34;;;16.62;62.93
4570;BME280;2297;51.442;6.996;2023-08-07T11:30:20;100261.25;;;16.71;61.38
4570;BME280;2297;51.442;6.996;2023-08-07T11:32:49;100264.84;;;17.08;61.47
4570;BME280;2297;51.442;6.996;2023-08-07T11:38:38;100268.25;;;16.55;62.24
4570;BME280;2297;51.442;6.996;2023-08-07T11:44:22;100267.88;;;16.04;60.82
4570;BME280;2297;51.442;6.996;2023-08-07T11:46:50;100295.22;;;16.28;59.77
4570;BME280;2297;51.442;6.996;2023-08-07T11:49:18;100283.09;;;15.79;60.36
4570;BME280;2297;51.442;6.996;2023-08-07T11:51:46;100272.06;;;16.09;60.54
4570;BME280;2297;51.442;6.996;2023-08-07T11:54:14;100267.63;;;16.29;60.71
4570;BME280;2297;51.442;6.996;2023-08-07T11:56:41;100275.38;;;16.54;59.86
4570;BME280;2297;51.442;6.996;2023-08-07T11:59:08;100279.25;;;16.66;60.15
4570;BME280;2297;51.442;6.996;2023-08-07T12:01:37;100264.16;;;16.86;59.78
4570;BME280;2297;51.442;6.996;2023-08-07T12:04:09;100279.31;;;17.22;58.67
4570;BME280;2297;51.442;6.996;2023-08-07T12:06:37;100260.00;;;17.34;58.08
4570;BME280;2297;51.442;6.996;2023-08-07T12:09:08;100270.75;;;17.69;57.66
4570;BME280;2297;51.442;6.996;2023-08-07T12:11:38;100275.25;;;17.50;57.00
4570;BME280;2297;51.442;6.996;2023-08-07T12:14:04;100266.41;;;17.12;57.30
4570;BME280;2297;51.442;6.996;2023-08-07T12:16:32;100269.75;;;17.53;54.61
4570;BME280;2297;51.442;6.996;2023-08-07T12:18:59;100272.47;;;17.88;54.24
4570;BME280;2297;51.442;6.996;2023-08-07T12:21:27;100267.59;;;17.78;51.89
4570;BME280;2297;51.442;6.996;2023-08-07T12:23:56;100284.91;;;17.35;51.28
4570;BME280;2297;51.442;6.996;2023-08-07T12:26:23;100281.13;;;17.21;51.01
4570;BME280;2297;51.442;6.996;2023-08-07T12:28:50;100277.09;;;17.30;50.44
4570;BME280;2297;51.442;6.996;2023-08-07T12:31:17;100287.53;;;17.71;50.21
4570;BME280;2297;51.442;6.996;2023-08-07T12:33:44;100271.47;;;17.36;49.12
4570;BME280;2297;51.442;6.996;2023-08-07T12:36:11;100275.09;;;17.53;48.61
4570;BME280;2297;51.442;6.996;2023-08-07T12:55:14;100293.47;;;17.41;48.31
4570;BME280;2297;51.442;6.996;2023-08-07T12:57:42;100313.06;;;17.23;47.19
4570;BME280;2297;51.442;6.996;2023-08-07T13:00:10;100295.13;;;17.07;47.82
4570;BME280;2297;51.442;6.996;2023-08-07T13:09:23;100280.03;;;17.43;48.14
4570;BME280;2297;51.442;6.996;2023-08-07T13:11:51;100281.59;;;17.84;47.95
4570;BME280;2297;51.442;6.996;2023-08-07T13:14:18;100288.16;;;17.76;47.16
4570;BME280;2297;51.442;6.996;2023-08-07T13:16:45;100280.75;;;18.17;46.98
4570;BME280;2297;51.442;6.996;2023-08-07T13:19:12;100287.19;;;17.60;47.01
4570;BME280;2297;51.442;6.996;2023-08-07T13:21:38;100281.22;;;17.55;46.11
4570;BME280;2297;51.442;6.996;2023-08-07T13:24:05;100281.25;;;17.90;44.07
4570;BME280;2297;51.442;6.996;2023-08-07T13:26:32;100290.50;;;18.00;44.00
4570;BME280;2297;51.442;6.996;2023-08-07T13:29:00;100290.06;;;17.74;43.52
4570;BME280;2297;51.442;6.996;2023-08-07T13:31:26;100276.97;;;18.21;43.01
4570;BME280;2297;51.442;6.996;2023-08-07T13:33:53;100273.47;;;18.86;42.20
4570;BME280;2297;51.442;6.996;2023-08-07T13:36:19;100278.31;;;18.12;42.33
4570;BME280;2297;51.442;6.996;2023-08-07T13:38:46;100274.47;;;18.00;42.87
4570;BME280;2297;51.442;6.996;2023-08-07T13:41:13;100277.16;;;18.34;41.89
4570;BME280;2297;51.442;6.996;2023-08-07T13:43:40;100275.34;;;18.68;41.63
4570;BME280;2297;51.442;6.996;2023-08-07T13:46:08;100260.31;;;19.13;40.44
4570;BME280;2297;51.442;6.996;2023-08-07T13:48:34;100273.09;;;19.24;39.01
4570;BME280;2297;51.442;6.996;2023-08-07T13:51:01;100268.03;;;19.19;38.62
4570;BME280;2297;51.442;6.996;2023-08-07T13:53:32;100300.81;;;18.91;38.16
4570;BME280;2297;51.442;6.996;2023-08-07T13:55:58;100292.19;;;18.86;38.71
4570;BME280;2297;51.442;6.996;2023-08-07T13:58:25;100287.56;;;18.56;39.43
4570;BME280;2297;51.442;6.996;2023-08-07T14:00:52;100295.44;;;18.41;39.70
4570;BME280;2297;51.442;6.996;2023-08-07T14:03:21;100299.63;;;17.96;40.19